sensor_id;sensor_type;location;lat;lon;timestamp;temperature;humidity
22008;DHT22;11168;56.976;24.168;2023-11-21T00:01:11;-3.20;99.90
22008;DHT22;11168;56.976;24.168;2023-11-21T00:03:38;-3.20;99.90
22008;DHT22;11168;56.976;24.168;2023-11-21T00:06:06;-3.20;99.90
22008;DHT22;11168;56.976;24.168;2023-11-21T00:08:37;-3.20;99.90
22008;DHT22;11168;56.976;24.168;2023-11-21T00:11:04;-3.30;99.90
22008;DHT22;11168;56.976;24.168;2023-11-21T00:13:34;-3.40;99.90
22008;DHT22;11168;56.976;24.168;2023-11-21T00:16:02;-3.30;99.90
22008;DHT22;11168;56.976;24.168;2023-11-21T00:18:29;-3.40;99.90
22008;DHT22;11168;56.976;24.168;2023-11-21T00:20:55;-3.40;99.90
22008;DHT22;11168;56.976;24.168;2023-11-21T00:23:25;-3.50;99.90
22008;DHT22;11168;56.976;24.168;2023-11-21T00:25:52;-3.50;99.90
22008;DHT22;11168;56.976;24.168;2023-11-21T00:28:19;-3.60;99.90
22008;DHT22;11168;56.976;24.168;2023-11-21T00:30:46;-3.60;99.90
22008;DHT22;11168;56.976;24.168;2023-11-21T00:33:13;-3.60;99.90
22008;DHT22;11168;56.976;24.168;2023-11-21T00:35:40;-3.60;99.90
22008;DHT22;11168;56.976;24.168;2023-11-21T00:38:07;-3.60;99.90
22008;DHT22;11168;56.976;24.168;2023-11-21T00:40:35;-3.60;99.90
22008;DHT22;11168;56.976;24.168;2023-11-21T00:43:02;-3.60;99.90
22008;DHT22;11168;56.976;24.168;2023-11-21T00:45:32;-3.60;99.90
22008;DHT22;11168;56.976;24.168;2023-11-21T00:47:59;-3.70;99.90
22008;DHT22;11168;56.976;24.168;2023-11-21T00:50:26;-3.70;99.90
22008;DHT22;11168;56.976;24.168;2023-11-21T00:52:53;-3.60;99.90
22008;DHT22;11168;56.976;24.168;2023-11-21T00:55:20;-3.60;99.90
22008;DHT22;11168;56.976;24.168;2023-11-21T00:57:48;-3.60;99.90
22008;DHT22;11168;56.976;24.168;2023-11-21T01:00:15;-3.60;99.90
22008;DHT22;11168;56.976;24.168;2023-11-21T01:02:44;-3.60;99.90
22008;DHT22;11168;56.976;24.168;2023-11-21T01:05:11;-3.60;99.90
22008;DHT22;11168;56.976;24.168;2023-11-21T01:07:38;-3.60;99.90
22008;DHT22;11168;56.976;24.168;2023-11-21T01:10:06;-3.70;99.90
22008;DHT22;11168;56.976;24.168;2023-11-21T01:12:36;-3.60;99.90
22008;DHT22;11168;56.976;24.168;2023-11-21T01:15:07;-3.60;99.90
22008;DHT22;11168;56.976;24.168;2023-11-21T01:17:35;-3.70;99.90
22008;DHT22;11168;56.976;24.168;2023-11-21T01:20:03;-3.70;99.90
22008;DHT22;11168;56.976;24.168;2023-11-21T01:22:33;-3.70;99.90
22008;DHT22;11168;56.976;24.168;2023-11-21T01:25:00;-3.60;99.90
22008;DHT22;11168;56.976;24.168;2023-11-21T01:27:27;-3.70;99.90
22008;DHT22;11168;56.976;24.168;2023-11-21T01:29:54;-3.70;99.90
22008;DHT22;11168;56.976;24.168;2023-11-21T01:32:21;-3.70;99.90
22008;DHT22;11168;56.976;24.168;2023-11-21T01:34:49;-3.70;99.90
22008;DHT22;11168;56.976;24.168;2023-11-21T01:37:17;-3.80;99.90
22008;DHT22;11168;56.976;24.168;2023-11-21T01:39:44;-3.80;99.90
22008;DHT22;11168;56.976;24.168;2023-11-21T01:42:11;-3.70;99.90
22008;DHT22;11168;56.976;24.168;2023-11-21T01:44:39;-3.80;99.90
22008;DHT22;11168;56.976;24.168;2023-11-21T01:47:08;-3.70;99.90
22008;DHT22;11168;56.976;24.168;2023-11-21T01:49:36;-3.80;99.90
22008;DHT22;11168;56.976;24.168;2023-11-21T01:52:04;-3.80;99.90
22008;DHT22;11168;56.976;24.168;2023-11-21T01:54:31;-3.70;99.90
22008;DHT22;11168;56.976;24.168;2023-11-21T01:56:59;-3.80;99.90
22008;DHT22;11168;56.976;24.168;2023-11-21T01:59:38;-3.70;99.90
22008;DHT22;11168;56.976;24.168;2023-11-21T02:02:08;-3.70;99.90
22008;DHT22;11168;56.976;24.168;2023-11-21T02:04:37;-3.70;99.90
22008;DHT22;11168;56.976;24.168;2023-11-21T02:07:04;-3.70;99.90
22008;DHT22;11168;56.976;24.168;2023-11-21T02:09:34;-3.70;99.90
22008;DHT22;11168;56.976;24.168;2023-11-21T02:12:01;-3.60;99.90
22008;DHT22;11168;56.976;24.168;2023-11-21T02:14:29;-3.60;99.90
22008;DHT22;11168;56.976;24.168;2023-11-21T02:16:57;-3.60;99.90
22008;DHT22;11168;56.976;24.168;2023-11-21T02:19:24;-3.60;99.90
22008;DHT22;11168;56.976;24.168;2023-11-21T02:21:57;-3.50;99.90
22008;DHT22;11168;56.976;24.168;2023-11-21T02:24:27;-3.60;99.90
22008;DHT22;11168;56.976;24.168;2023-11-21T02:26:54;-3.60;99.90
22008;DHT22;11168;56.976;24.168;2023-11-21T02:29:22;-3.50;99.90
22008;DHT22;11168;56.976;24.168;2023-11-21T02:31:55;-3.50;99.90
22008;DHT22;11168;56.976;24.168;2023-11-21T02:34:23;-3.50;99.90
22008;DHT22;11168;56.976;24.168;2023-11-21T02:36:52;-3.50;99.90
22008;DHT22;11168;56.976;24.168;2023-11-21T02:39:19;-3.50;99.90
22008;DHT22;11168;56.976;24.168;2023-11-21T02:41:49;-3.50;99.90
22008;DHT22;11168;56.976;24.168;2023-11-21T02:44:17;-3.60;99.90
22008;DHT22;11168;56.976;24.168;2023-11-21T02:46:44;-3.50;99.90
22008;DHT22;11168;56.976;24.168;2023-11-21T02:49:11;-3.50;99.90
22008;DHT22;11168;56.976;24.168;2023-11-21T02:51:38;-3.50;99.90
22008;DHT22;11168;56.976;24.168;2023-11-21T02:54:06;-3.50;99.90
22008;DHT22;11168;56.976;24.168;2023-11-21T02:56:34;-3.50;99.90
22008;DHT22;11168;56.976;24.168;2023-11-21T02:59:02;-3.50;99.90
22008;DHT22;11168;56.976;24.168;2023-11-21T03:01:29;-3.50;99.90
22008;DHT22;11168;56.976;24.168;2023-11-21T03:03:56;-3.50;99.90
22008;DHT22;11168;56.976;24.168;2023-11-21T03:06:23;-3.40;99.90
22008;DHT22;11168;56.976;24.168;2023-11-21T03:08:50;-3.40;99.90
22008;DHT22;11168;56.976;24.168;2023-11-21T03:11:17;-3.40;99.90
22008;DHT22;11168;56.976;24.168;2023-11-21T03:13:44;-3.40;99.90
22008;DHT22;11168;56.976;24.168;2023-11-21T03:16:12;-3.30;99.90
22008;DHT22;11168;56.976;24.168;2023-11-21T03:18:40;-3.30;99.90
22008;DHT22;11168;56.976;24.168;2023-11-21T03:21:07;-3.30;99.90
22008;DHT22;11168;56.976;24.168;2023-11-21T03:23:37;-3.30;99.90
22008;DHT22;11168;56.976;24.168;2023-11-21T03:26:04;-3.40;99.90
22008;DHT22;11168;56.976;24.168;2023-11-21T03:28:32;-3.40;99.90
22008;DHT22;11168;56.976;24.168;2023-11-21T03:30:59;-3.30;99.90
22008;DHT22;11168;56.976;24.168;2023-11-21T03:33:26;-3.30;99.90
22008;DHT22;11168;56.976;24.168;2023-11-21T03:35:53;-3.20;99.90
22008;DHT22;11168;56.976;24.168;2023-11-21T03:38:20;-3.30;99.90
22008;DHT22;11168;56.976;24.168;2023-11-21T03:40:47;-3.30;99.90
22008;DHT22;11168;56.976;24.168;2023-11-21T03:43:14;-3.30;99.90
22008;DHT22;11168;56.976;24.168;2023-11-21T03:45:41;-3.20;99.90
22008;DHT22;11168;56.976;24.168;2023-11-21T03:48:08;-3.20;99.90
22008;DHT22;11168;56.976;24.168;2023-11-21T03:50:35;-3.20;99.90
22008;DHT22;11168;56.976;24.168;2023-11-21T03:53:02;-3.20;99.90
22008;DHT22;11168;56.976;24.168;2023-11-21T03:55:30;-3.20;99.90
22008;DHT22;11168;56.976;24.168;2023-11-21T03:57:58;-3.20;99.90
22008;DHT22;11168;56.976;24.168;2023-11-21T04:00:26;-3.10;99.90
22008;DHT22;11168;56.976;24.168;2023-11-21T04:02:53;-3.10;99.90
22008;DHT22;11168;56.976;24.168;2023-11-21T04:05:21;-3.10;99.90
22008;DHT22;11168;56.976;24.168;2023-11-21T04:07:49;-3.10;99.90
22008;DHT22;11168;56.976;24.168;2023-11-21T04:10:18;-3.00;99.90
22008;DHT22;11168;56.976;24.168;2023-11-21T04:12:45;-3.10;99.90
22008;DHT22;11168;56.976;24.168;2023-11-21T04:15:12;-3.00;99.90
22008;DHT22;11168;56.976;24.168;2023-11-21T04:17:41;-3.00;99.90
22008;DHT22;11168;56.976;24.168;2023-11-21T04:20:09;-3.10;99.90
22008;DHT22;11168;56.976;24.168;2023-11-21T04:22:38;-3.10;99.90
22008;DHT22;11168;56.976;24.168;2023-11-21T04:25:11;-3.10;99.90
22008;DHT22;11168;56.976;24.168;2023-11-21T04:27:42;-3.10;99.90
22008;DHT22;11168;56.976;24.168;2023-11-21T04:30:13;-3.10;99.90
22008;DHT22;11168;56.976;24.168;2023-11-21T04:32:40;-3.10;99.90
22008;DHT22;11168;56.976;24.168;2023-11-21T04:35:08;-3.10;99.90
22008;DHT22;11168;56.976;24.168;2023-11-21T04:37:35;-3.00;99.90
22008;DHT22;11168;56.976;24.168;2023-11-21T04:40:03;-3.00;99.90
22008;DHT22;11168;56.976;24.168;2023-11-21T04:42:36;-3.00;99.90
22008;DHT22;11168;56.976;24.168;2023-11-21T04:45:05;-3.00;99.90
22008;DHT22;11168;56.976;24.168;2023-11-21T04:47:36;-3.00;99.90
22008;DHT22;11168;56.976;24.168;2023-11-21T04:50:04;-3.00;99.90
22008;DHT22;11168;56.976;24.168;2023-11-21T04:52:32;-3.00;99.90
22008;DHT22;11168;56.976;24.168;2023-11-21T04:55:00;-3.00;99.90
22008;DHT22;11168;56.976;24.168;2023-11-21T04:57:28;-3.00;99.90
22008;DHT22;11168;56.976;24.168;2023-11-21T04:59:55;-3.00;99.90
22008;DHT22;11168;56.976;24.168;2023-11-21T05:02:22;-3.10;99.90
22008;DHT22;11168;56.976;24.168;2023-11-21T05:05:02;-3.10;99.90
22008;DHT22;11168;56.976;24.168;2023-11-21T05:07:29;-3.10;99.90
22008;DHT22;11168;56.976;24.168;2023-11-21T05:09:58;-3.10;99.90
22008;DHT22;11168;56.976;24.168;2023-11-21T05:12:25;-3.10;99.90
22008;DHT22;11168;56.976;24.168;2023-11-21T05:14:52;-3.10;99.90
22008;DHT22;11168;56.976;24.168;2023-11-21T05:17:19;-3.10;99.90
22008;DHT22;11168;56.976;24.168;2023-11-21T05:19:46;-3.20;99.90
22008;DHT22;11168;56.976;24.168;2023-11-21T05:22:16;-3.30;99.90
22008;DHT22;11168;56.976;24.168;2023-11-21T05:24:43;-3.20;99.90
22008;DHT22;11168;56.976;24.168;2023-11-21T05:27:10;-3.20;99.90
22008;DHT22;11168;56.976;24.168;2023-11-21T05:29:37;-3.20;99.90
22008;DHT22;11168;56.976;24.168;2023-11-21T05:32:06;-3.30;99.90
22008;DHT22;11168;56.976;24.168;2023-11-21T05:34:33;-3.20;99.90
22008;DHT22;11168;56.976;24.168;2023-11-21T05:37:00;-3.30;99.90
22008;DHT22;11168;56.976;24.168;2023-11-21T05:39:27;-3.30;99.90
22008;DHT22;11168;56.976;24.168;2023-11-21T05:41:54;-3.20;99.90
22008;DHT22;11168;56.976;24.168;2023-11-21T05:44:22;-3.20;99.90
22008;DHT22;11168;56.976;24.168;2023-11-21T05:46:50;-3.20;99.90
22008;DHT22;11168;56.976;24.168;2023-11-21T05:49:17;-3.20;99.90
22008;DHT22;11168;56.976;24.168;2023-11-21T05:51:47;-3.10;99.90
22008;DHT22;11168;56.976;24.168;2023-11-21T05:54:14;-3.10;99.90
22008;DHT22;11168;56.976;24.168;2023-11-21T05:56:41;-3.00;99.90
22008;DHT22;11168;56.976;24.168;2023-11-21T05:59:08;-3.00;99.90
22008;DHT22;11168;56.976;24.168;2023-11-21T06:01:34;-3.00;99.90
22008;DHT22;11168;56.976;24.168;2023-11-21T06:04:05;-3.00;99.90
22008;DHT22;11168;56.976;24.168;2023-11-21T06:06:35;-2.90;99.90
22008;DHT22;11168;56.976;24.168;2023-11-21T06:09:02;-2.90;99.90
22008;DHT22;11168;56.976;24.168;2023-11-21T06:11:29;-2.90;99.90
22008;DHT22;11168;56.976;24.168;2023-11-21T06:13:56;-2.90;99.90
22008;DHT22;11168;56.976;24.168;2023-11-21T06:16:23;-2.90;99.90
22008;DHT22;11168;56.976;24.168;2023-11-21T06:18:51;-2.90;99.90
22008;DHT22;11168;56.976;24.168;2023-11-21T06:21:17;-2.90;99.90
22008;DHT22;11168;56.976;24.168;2023-11-21T06:23:45;-2.90;99.90
22008;DHT22;11168;56.976;24.168;2023-11-21T06:26:12;-2.90;99.90
22008;DHT22;11168;56.976;24.168;2023-11-21T06:28:39;-2.90;99.90
22008;DHT22;11168;56.976;24.168;2023-11-21T06:31:06;-2.80;99.90
22008;DHT22;11168;56.976;24.168;2023-11-21T06:33:34;-2.80;99.90
22008;DHT22;11168;56.976;24.168;2023-11-21T06:36:01;-2.90;99.90
22008;DHT22;11168;56.976;24.168;2023-11-21T06:38:30;-2.90;99.90
22008;DHT22;11168;56.976;24.168;2023-11-21T06:40:59;-3.00;99.90
22008;DHT22;11168;56.976;24.168;2023-11-21T06:43:29;-2.90;99.90
22008;DHT22;11168;56.976;24.168;2023-11-21T06:45:58;-2.90;99.90
22008;DHT22;11168;56.976;24.168;2023-11-21T06:48:25;-2.90;99.90
22008;DHT22;11168;56.976;24.168;2023-11-21T06:50:52;-2.90;99.90
22008;DHT22;11168;56.976;24.168;2023-11-21T06:53:19;-3.00;99.90
22008;DHT22;11168;56.976;24.168;2023-11-21T06:55:46;-3.00;99.90
22008;DHT22;11168;56.976;24.168;2023-11-21T06:58:13;-2.90;99.90
22008;DHT22;11168;56.976;24.168;2023-11-21T07:00:41;-2.90;99.90
22008;DHT22;11168;56.976;24.168;2023-11-21T07:03:13;-2.90;99.90
22008;DHT22;11168;56.976;24.168;2023-11-21T07:05:40;-2.80;99.90
22008;DHT22;11168;56.976;24.168;2023-11-21T07:08:07;-2.70;99.90
22008;DHT22;11168;56.976;24.168;2023-11-21T07:10:35;-2.70;99.90
22008;DHT22;11168;56.976;24.168;2023-11-21T07:13:03;-2.70;99.90
22008;DHT22;11168;56.976;24.168;2023-11-21T07:15:30;-2.60;99.90
22008;DHT22;11168;56.976;24.168;2023-11-21T07:17:57;-2.60;99.90
22008;DHT22;11168;56.976;24.168;2023-11-21T07:20:25;-2.60;99.90
22008;DHT22;11168;56.976;24.168;2023-11-21T07:22:52;-2.70;99.90
22008;DHT22;11168;56.976;24.168;2023-11-21T07:25:19;-2.70;99.90
22008;DHT22;11168;56.976;24.168;2023-11-21T07:27:46;-2.70;99.90
22008;DHT22;11168;56.976;24.168;2023-11-21T07:30:13;-2.60;99.90
22008;DHT22;11168;56.976;24.168;2023-11-21T07:32:40;-2.60;99.90
22008;DHT22;11168;56.976;24.168;2023-11-21T07:35:08;-2.60;99.90
22008;DHT22;11168;56.976;24.168;2023-11-21T07:37:35;-2.60;99.90
22008;DHT22;11168;56.976;24.168;2023-11-21T07:40:02;-2.60;99.90
22008;DHT22;11168;56.976;24.168;2023-11-21T07:42:29;-2.60;99.90
22008;DHT22;11168;56.976;24.168;2023-11-21T07:44:56;-2.70;99.90
22008;DHT22;11168;56.976;24.168;2023-11-21T07:47:23;-2.70;99.90
22008;DHT22;11168;56.976;24.168;2023-11-21T07:49:54;-2.70;99.90
22008;DHT22;11168;56.976;24.168;2023-11-21T07:52:23;-2.70;99.90
22008;DHT22;11168;56.976;24.168;2023-11-21T07:54:50;-2.70;99.90
22008;DHT22;11168;56.976;24.168;2023-11-21T07:57:17;-2.60;99.90
22008;DHT22;11168;56.976;24.168;2023-11-21T07:59:44;-2.50;99.90
22008;DHT22;11168;56.976;24.168;2023-11-21T08:02:11;-2.50;99.90
22008;DHT22;11168;56.976;24.168;2023-11-21T08:04:38;-2.50;99.90
22008;DHT22;11168;56.976;24.168;2023-11-21T08:07:05;-2.70;99.90
22008;DHT22;11168;56.976;24.168;2023-11-21T08:09:32;-2.70;99.90
22008;DHT22;11168;56.976;24.168;2023-11-21T08:12:01;-2.70;99.90
22008;DHT22;11168;56.976;24.168;2023-11-21T08:14:29;-2.60;99.90
22008;DHT22;11168;56.976;24.168;2023-11-21T08:16:56;-2.60;99.90
22008;DHT22;11168;56.976;24.168;2023-11-21T08:19:24;-2.70;99.90
22008;DHT22;11168;56.976;24.168;2023-11-21T08:21:52;-2.60;99.90
22008;DHT22;11168;56.976;24.168;2023-11-21T08:24:22;-2.50;99.90
22008;DHT22;11168;56.976;24.168;2023-11-21T08:26:49;-2.40;99.90
22008;DHT22;11168;56.976;24.168;2023-11-21T08:29:16;-2.40;99.90
22008;DHT22;11168;56.976;24.168;2023-11-21T08:31:44;-2.40;99.90
22008;DHT22;11168;56.976;24.168;2023-11-21T08:34:13;-2.50;99.90
22008;DHT22;11168;56.976;24.168;2023-11-21T08:36:43;-2.40;99.90
22008;DHT22;11168;56.976;24.168;2023-11-21T08:39:10;-2.40;99.90
22008;DHT22;11168;56.976;24.168;2023-11-21T08:41:37;-2.50;99.90
22008;DHT22;11168;56.976;24.168;2023-11-21T08:44:04;-2.40;99.90
22008;DHT22;11168;56.976;24.168;2023-11-21T08:46:34;-2.30;99.90
22008;DHT22;11168;56.976;24.168;2023-11-21T08:49:01;-2.40;99.90
22008;DHT22;11168;56.976;24.168;2023-11-21T08:51:28;-2.30;99.90
22008;DHT22;11168;56.976;24.168;2023-11-21T08:53:55;-2.30;99.90
22008;DHT22;11168;56.976;24.168;2023-11-21T08:56:26;-2.20;99.90
22008;DHT22;11168;56.976;24.168;2023-11-21T08:58:53;-2.20;99.90
22008;DHT22;11168;56.976;24.168;2023-11-21T09:01:20;-2.20;99.90
22008;DHT22;11168;56.976;24.168;2023-11-21T09:03:47;-2.20;99.90
22008;DHT22;11168;56.976;24.168;2023-11-21T09:06:17;-2.10;99.90
22008;DHT22;11168;56.976;24.168;2023-11-21T09:08:44;-2.10;99.90
22008;DHT22;11168;56.976;24.168;2023-11-21T09:11:11;-2.00;99.90
22008;DHT22;11168;56.976;24.168;2023-11-21T09:13:38;-1.90;99.90
22008;DHT22;11168;56.976;24.168;2023-11-21T09:16:05;-1.90;99.90
22008;DHT22;11168;56.976;24.168;2023-11-21T09:18:32;-1.80;99.90
22008;DHT22;11168;56.976;24.168;2023-11-21T09:20:59;-1.90;99.90
22008;DHT22;11168;56.976;24.168;2023-11-21T09:23:26;-1.90;99.90
22008;DHT22;11168;56.976;24.168;2023-11-21T09:25:53;-2.00;99.90
22008;DHT22;11168;56.976;24.168;2023-11-21T09:28:23;-1.90;99.90
22008;DHT22;11168;56.976;24.168;2023-11-21T09:30:50;-1.80;99.90
22008;DHT22;11168;56.976;24.168;2023-11-21T09:33:17;-1.80;99.90
22008;DHT22;11168;56.976;24.168;2023-11-21T09:35:44;-1.60;99.90
22008;DHT22;11168;56.976;24.168;2023-11-21T09:38:12;-1.50;99.90
22008;DHT22;11168;56.976;24.168;2023-11-21T09:40:39;-1.50;99.90
22008;DHT22;11168;56.976;24.168;2023-11-21T09:43:08;-1.50;99.90
22008;DHT22;11168;56.976;24.168;2023-11-21T09:45:47;-1.50;99.90
22008;DHT22;11168;56.976;24.168;2023-11-21T09:48:15;-1.50;99.90
22008;DHT22;11168;56.976;24.168;2023-11-21T09:50:43;-1.50;99.90
22008;DHT22;11168;56.976;24.168;2023-11-21T09:53:20;-1.50;99.90
22008;DHT22;11168;56.976;24.168;2023-11-21T09:55:50;-1.40;99.90
22008;DHT22;11168;56.976;24.168;2023-11-21T09:58:19;-1.50;99.90
22008;DHT22;11168;56.976;24.168;2023-11-21T10:00:48;-1.50;99.90
22008;DHT22;11168;56.976;24.168;2023-11-21T10:03:15;-1.30;99.90
22008;DHT22;11168;56.976;24.168;2023-11-21T10:05:43;-0.20;99.90
22008;DHT22;11168;56.976;24.168;2023-11-21T10:08:13;1.90;99.90
22008;DHT22;11168;56.976;24.168;2023-11-21T10:10:45;2.50;99.90
22008;DHT22;11168;56.976;24.168;2023-11-21T10:13:13;2.20;99.90
22008;DHT22;11168;56.976;24.168;2023-11-21T10:15:44;1.70;99.90
22008;DHT22;11168;56.976;24.168;2023-11-21T10:18:16;1.20;99.90
22008;DHT22;11168;56.976;24.168;2023-11-21T10:20:43;0.60;99.90
22008;DHT22;11168;56.976;24.168;2023-11-21T10:23:13;0.30;99.90
22008;DHT22;11168;56.976;24.168;2023-11-21T10:25:42;0.10;99.90
22008;DHT22;11168;56.976;24.168;2023-11-21T10:28:09;-0.10;99.90
22008;DHT22;11168;56.976;24.168;2023-11-21T10:30:38;-0.20;99.90
22008;DHT22;11168;56.976;24.168;2023-11-21T10:33:05;-0.40;99.90
22008;DHT22;11168;56.976;24.168;2023-11-21T10:35:46;-0.50;99.90
22008;DHT22;11168;56.976;24.168;2023-11-21T10:38:14;-0.60;99.90
22008;DHT22;11168;56.976;24.168;2023-11-21T10:40:41;-0.80;99.90
22008;DHT22;11168;56.976;24.168;2023-11-21T10:43:09;-0.80;99.90
22008;DHT22;11168;56.976;24.168;2023-11-21T10:45:37;-0.80;99.90
22008;DHT22;11168;56.976;24.168;2023-11-21T10:48:06;-0.90;99.90
22008;DHT22;11168;56.976;24.168;2023-11-21T10:50:37;-0.90;99.90
22008;DHT22;11168;56.976;24.168;2023-11-21T10:53:05;-0.90;99.90
22008;DHT22;11168;56.976;24.168;2023-11-21T10:55:35;-0.90;99.90
22008;DHT22;11168;56.976;24.168;2023-11-21T10:58:03;-1.00;99.90
22008;DHT22;11168;56.976;24.168;2023-11-21T11:00:32;-1.00;99.90
22008;DHT22;11168;56.976;24.168;2023-11-21T11:03:00;-1.00;99.90
22008;DHT22;11168;56.976;24.168;2023-11-21T11:05:29;-1.10;99.90
22008;DHT22;11168;56.976;24.168;2023-11-21T11:07:59;-1.20;99.90
22008;DHT22;11168;56.976;24.168;2023-11-21T11:10:29;-1.10;99.90
22008;DHT22;11168;56.976;24.168;2023-11-21T11:12:56;-1.00;99.90
22008;DHT22;11168;56.976;24.168;2023-11-21T11:15:26;-1.10;99.90
22008;DHT22;11168;56.976;24.168;2023-11-21T11:17:54;-1.00;99.90
22008;DHT22;11168;56.976;24.168;2023-11-21T11:20:33;-1.10;99.90
22008;DHT22;11168;56.976;24.168;2023-11-21T11:31:48;-1.30;99.90
22008;DHT22;11168;56.976;24.168;2023-11-21T11:34:35;-1.20;99.90
22008;DHT22;11168;56.976;24.168;2023-11-21T11:37:07;-1.30;99.90
22008;DHT22;11168;56.976;24.168;2023-11-21T11:39:42;-1.20;99.90
22008;DHT22;11168;56.976;24.168;2023-11-21T11:42:15;-1.10;99.90
22008;DHT22;11168;56.976;24.168;2023-11-21T11:50:01;-1.10;99.90
22008;DHT22;11168;56.976;24.168;2023-11-21T11:52:42;-1.10;99.90
22008;DHT22;11168;56.976;24.168;2023-11-21T11:55:15;-1.10;99.90
22008;DHT22;11168;56.976;24.168;2023-11-21T11:57:49;-1.00;99.90
22008;DHT22;11168;56.976;24.168;2023-11-21T12:02:57;-1.00;99.90
22008;DHT22;11168;56.976;24.168;2023-11-21T12:05:27;-1.00;99.90
22008;DHT22;11168;56.976;24.168;2023-11-21T12:08:03;-0.90;99.90
22008;DHT22;11168;56.976;24.168;2023-11-21T12:10:32;-0.90;99.90
22008;DHT22;11168;56.976;24.168;2023-11-21T12:13:07;-0.70;99.90
22008;DHT22;11168;56.976;24.168;2023-11-21T12:15:34;-0.60;99.90
22008;DHT22;11168;56.976;24.168;2023-11-21T12:18:03;-0.60;99.90
22008;DHT22;11168;56.976;24.168;2023-11-21T12:20:30;-0.60;99.90
22008;DHT22;11168;56.976;24.168;2023-11-21T12:22:59;-0.70;99.90
22008;DHT22;11168;56.976;24.168;2023-11-21T12:25:31;-0.70;99.90
22008;DHT22;11168;56.976;24.168;2023-11-21T12:28:02;-0.70;99.90
22008;DHT22;11168;56.976;24.168;2023-11-21T12:30:31;-0.70;99.90
22008;DHT22;11168;56.976;24.168;2023-11-21T12:32:59;-0.80;99.90
22008;DHT22;11168;56.976;24.168;2023-11-21T12:35:30;-0.80;99.90
22008;DHT22;11168;56.976;24.168;2023-11-21T12:37:57;-0.90;99.90
22008;DHT22;11168;56.976;24.168;2023-11-21T12:40:26;-0.90;99.90
22008;DHT22;11168;56.976;24.168;2023-11-21T12:42:56;-0.90;99.90
22008;DHT22;11168;56.976;24.168;2023-11-21T12:45:25;-0.90;99.90
22008;DHT22;11168;56.976;24.168;2023-11-21T12:48:01;-1.00;99.90
22008;DHT22;11168;56.976;24.168;2023-11-21T12:50:31;-1.00;99.90
22008;DHT22;11168;56.976;24.168;2023-11-21T12:53:06;-0.90;99.90
22008;DHT22;11168;56.976;24.168;2023-11-21T12:55:36;-1.00;99.90
22008;DHT22;11168;56.976;24.168;2023-11-21T12:58:08;-1.00;99.90
22008;DHT22;11168;56.976;24.168;2023-11-21T13:00:46;-1.00;99.90
22008;DHT22;11168;56.976;24.168;2023-11-21T13:03:15;-1.00;99.90
22008;DHT22;11168;56.976;24.168;2023-11-21T13:05:47;-0.90;99.90
22008;DHT22;11168;56.976;24.168;2023-11-21T13:08:22;-1.00;99.90
22008;DHT22;11168;56.976;24.168;2023-11-21T13:10:56;-0.90;99.90
22008;DHT22;11168;56.976;24.168;2023-11-21T13:13:25;-0.90;99.90
22008;DHT22;11168;56.976;24.168;2023-11-21T13:16:02;-1.00;99.90
22008;DHT22;11168;56.976;24.168;2023-11-21T13:18:32;-1.00;99.90
22008;DHT22;11168;56.976;24.168;2023-11-21T13:21:04;-1.00;99.90
22008;DHT22;11168;56.976;24.168;2023-11-21T13:23:42;-1.00;99.90
22008;DHT22;11168;56.976;24.168;2023-11-21T13:26:09;-1.00;99.90
22008;DHT22;11168;56.976;24.168;2023-11-21T13:28:37;-0.90;99.90
22008;DHT22;11168;56.976;24.168;2023-11-21T13:31:05;-0.90;99.90
22008;DHT22;11168;56.976;24.168;2023-11-21T13:33:49;-0.90;99.90
22008;DHT22;11168;56.976;24.168;2023-11-21T13:36:24;-0.90;99.90
22008;DHT22;11168;56.976;24.168;2023-11-21T13:38:52;-0.80;99.90
22008;DHT22;11168;56.976;24.168;2023-11-21T13:41:22;-0.70;99.90
22008;DHT22;11168;56.976;24.168;2023-11-21T13:43:58;-0.70;99.90
22008;DHT22;11168;56.976;24.168;2023-11-21T13:46:54;-0.70;99.90
22008;DHT22;11168;56.976;24.168;2023-11-21T13:49:23;-0.70;99.90
22008;DHT22;11168;56.976;24.168;2023-11-21T13:51:52;-0.70;99.90
22008;DHT22;11168;56.976;24.168;2023-11-21T13:54:21;-0.70;99.90
22008;DHT22;11168;56.976;24.168;2023-11-21T13:56:50;-0.70;99.90
22008;DHT22;11168;56.976;24.168;2023-11-21T13:59:17;-0.70;99.90
22008;DHT22;11168;56.976;24.168;2023-11-21T14:01:50;-0.70;99.90
22008;DHT22;11168;56.976;24.168;2023-11-21T14:04:27;-0.70;99.90
22008;DHT22;11168;56.976;24.168;2023-11-21T14:06:57;-0.70;99.90
22008;DHT22;11168;56.976;24.168;2023-11-21T14:09:28;-0.70;99.90
22008;DHT22;11168;56.976;24.168;2023-11-21T14:12:00;-0.70;99.90
22008;DHT22;11168;56.976;24.168;2023-11-21T14:14:29;-0.70;99.90
22008;DHT22;11168;56.976;24.168;2023-11-21T14:16:56;-0.80;99.90
22008;DHT22;11168;56.976;24.168;2023-11-21T14:19:25;-0.80;99.90
22008;DHT22;11168;56.976;24.168;2023-11-21T14:21:58;-0.80;99.90
22008;DHT22;11168;56.976;24.168;2023-11-21T14:24:25;-0.80;99.90
22008;DHT22;11168;56.976;24.168;2023-11-21T14:26:52;-0.80;99.90
22008;DHT22;11168;56.976;24.168;2023-11-21T14:29:20;-0.80;99.90
22008;DHT22;11168;56.976;24.168;2023-11-21T14:31:49;-0.80;99.90
22008;DHT22;11168;56.976;24.168;2023-11-21T14:34:23;-0.80;99.90
22008;DHT22;11168;56.976;24.168;2023-11-21T14:36:50;-0.90;99.90
22008;DHT22;11168;56.976;24.168;2023-11-21T14:39:17;-0.90;99.90
22008;DHT22;11168;56.976;24.168;2023-11-21T14:41:51;-0.90;99.90
22008;DHT22;11168;56.976;24.168;2023-11-21T14:44:19;-0.90;99.90
22008;DHT22;11168;56.976;24.168;2023-11-21T14:46:47;-0.90;99.90
22008;DHT22;11168;56.976;24.168;2023-11-21T14:49:17;-0.90;99.90
22008;DHT22;11168;56.976;24.168;2023-11-21T14:51:49;-0.80;99.90
22008;DHT22;11168;56.976;24.168;2023-11-21T14:54:34;-0.90;99.90
22008;DHT22;11168;56.976;24.168;2023-11-21T14:57:04;-0.90;99.90
22008;DHT22;11168;56.976;24.168;2023-11-21T14:59:36;-0.90;99.90
22008;DHT22;11168;56.976;24.168;2023-11-21T15:02:03;-0.90;99.90
22008;DHT22;11168;56.976;24.168;2023-11-21T15:04:45;-0.80;99.90
22008;DHT22;11168;56.976;24.168;2023-11-21T15:07:12;-0.80;99.90
22008;DHT22;11168;56.976;24.168;2023-11-21T15:09:40;-0.80;99.90
22008;DHT22;11168;56.976;24.168;2023-11-21T15:12:09;-0.90;99.90
22008;DHT22;11168;56.976;24.168;2023-11-21T15:14:47;-0.90;99.90
22008;DHT22;11168;56.976;24.168;2023-11-21T15:17:17;-0.90;99.90
22008;DHT22;11168;56.976;24.168;2023-11-21T15:19:51;-0.80;99.90
22008;DHT22;11168;56.976;24.168;2023-11-21T15:22:19;-0.80;99.90
22008;DHT22;11168;56.976;24.168;2023-11-21T15:24:46;-0.80;99.90
22008;DHT22;11168;56.976;24.168;2023-11-21T15:27:14;-0.90;99.90
22008;DHT22;11168;56.976;24.168;2023-11-21T15:29:43;-0.90;99.90
22008;DHT22;11168;56.976;24.168;2023-11-21T15:32:10;-0.90;99.90
22008;DHT22;11168;56.976;24.168;2023-11-21T15:34:38;-0.90;99.90
22008;DHT22;11168;56.976;24.168;2023-11-21T15:37:07;-0.90;99.90
22008;DHT22;11168;56.976;24.168;2023-11-21T15:39:39;-1.00;99.90
22008;DHT22;11168;56.976;24.168;2023-11-21T15:42:06;-0.90;99.90
22008;DHT22;11168;56.976;24.168;2023-11-21T15:44:37;-0.90;99.90